Time;durP1;ratioP1;P1;durP2;ratioP2;P2;SDS_P1;SDS_P2;PMS_P1;PMS_P2;Temp;Humidity;BMP_temperature;BMP_pressure;BME280_temperature;BME280_humidity;BME280_pressure;Samples;Min_cycle;Max_cycle;Signal;HPM_P1;HPM_P2
2022/06/14 00:03:10;;;;;;;0.90;0.90;;;18.20;99.90;;;;;;5092529;28;20217;-62
2022/06/14 00:05:38;;;;;;;1.07;1.07;;;18.20;99.90;;;;;;5094373;28;20250;-64
2022/06/14 00:08:06;;;;;;;1.10;1.00;;;18.00;99.90;;;;;;5116600;22;20380;-66
2022/06/14 00:10:33;;;;;;;0.90;0.90;;;17.80;99.90;;;;;;5095297;28;20237;-66
2022/06/14 00:13:00;;;;;;;0.90;0.90;;;17.80;99.90;;;;;;5096740;28;20233;-66
2022/06/14 00:15:27;;;;;;;0.80;0.80;;;17.90;99.90;;;;;;5101860;28;20289;-65
2022/06/14 00:17:54;;;;;;;0.88;0.88;;;17.70;99.90;;;;;;5094340;28;20415;-65
2022/06/14 00:20:21;;;;;;;1.00;1.00;;;17.60;99.90;;;;;;5096517;28;20293;-66
2022/06/14 00:22:49;;;;;;;0.90;0.90;;;17.30;99.90;;;;;;5101557;28;20210;-65
2022/06/14 00:25:28;;;;;;;1.00;1.00;;;17.20;99.90;;;;;;5099020;28;20543;-65
2022/06/14 00:27:56;;;;;;;1.05;1.05;;;17.10;99.90;;;;;;5107123;28;20764;-66
2022/06/14 00:30:25;;;;;;;0.93;0.93;;;17.10;99.90;;;;;;5105389;28;20307;-66
2022/06/14 00:32:52;;;;;;;1.58;1.48;;;17.10;99.90;;;;;;5098543;28;20210;-65
2022/06/14 00:35:19;;;;;;;1.00;1.00;;;16.90;99.90;;;;;;5099345;28;20692;-65
2022/06/14 00:37:46;;;;;;;0.90;0.90;;;16.60;99.90;;;;;;5098668;28;20802;-65
2022/06/14 00:40:17;;;;;;;1.00;1.00;;;16.30;99.90;;;;;;5095814;28;20285;-65
2022/06/14 00:42:45;;;;;;;1.00;1.00;;;16.10;99.90;;;;;;5099219;28;20209;-64
2022/06/14 00:45:46;;;;;;;1.05;1.05;;;15.90;99.90;;;;;;5112088;28;20194;-65
2022/06/14 00:48:18;;;;;;;0.90;0.90;;;15.80;99.90;;;;;;5097875;28;20963;-66
2022/06/14 00:50:49;;;;;;;0.82;0.82;;;15.70;99.90;;;;;;5105626;28;20232;-67
2022/06/14 00:53:21;;;;;;;1.05;1.05;;;15.60;99.90;;;;;;5098887;28;20289;-66
2022/06/14 00:55:53;;;;;;;1.05;1.05;;;15.50;99.90;;;;;;5101254;28;20650;-65
2022/06/14 00:58:25;;;;;;;0.90;0.90;;;15.60;99.90;;;;;;5104001;28;20306;-65
2022/06/14 01:00:55;;;;;;;0.95;0.95;;;15.60;99.90;;;;;;5099618;28;20290;-66
2022/06/14 01:03:24;;;;;;;1.00;1.00;;;15.50;99.90;;;;;;5099866;28;20640;-65
2022/06/14 01:06:06;;;;;;;0.93;0.93;;;15.50;99.90;;;;;;5101155;28;20210;-66
2022/06/14 01:08:36;;;;;;;1.00;1.00;;;15.40;99.90;;;;;;5101724;28;20252;-66
2022/06/14 01:11:06;;;;;;;1.17;1.08;;;15.40;99.90;;;;;;5093737;28;20222;-66
2022/06/14 01:13:33;;;;;;;1.02;1.02;;;15.30;99.90;;;;;;5106949;28;20224;-66
2022/06/14 01:16:00;;;;;;;1.00;1.00;;;15.20;99.90;;;;;;5099741;28;20203;-65
2022/06/14 01:18:28;;;;;;;1.30;1.20;;;15.10;99.90;;;;;;5110234;28;20313;-66
2022/06/14 01:20:55;;;;;;;1.02;1.02;;;15.10;99.90;;;;;;5104647;28;20293;-66
2022/06/14 01:23:24;;;;;;;1.10;1.10;;;15.20;99.90;;;;;;5104514;28;20289;-66
2022/06/14 01:25:55;;;;;;;1.20;1.10;;;15.20;99.90;;;;;;5109790;28;20209;-66
2022/06/14 01:28:26;;;;;;;1.13;1.13;;;15.10;99.90;;;;;;5105292;28;20217;-66
2022/06/14 01:30:54;;;;;;;1.10;1.10;;;15.20;99.90;;;;;;5111827;28;20205;-66
2022/06/14 01:33:26;;;;;;;0.85;0.85;;;15.20;99.90;;;;;;5108732;28;20262;-65
2022/06/14 01:35:56;;;;;;;1.10;1.10;;;15.20;99.90;;;;;;5104346;28;20247;-66
2022/06/14 01:38:25;;;;;;;1.00;1.00;;;15.10;99.90;;;;;;5104116;28;20305;-66
2022/06/14 01:41:00;;;;;;;0.90;0.90;;;15.10;99.90;;;;;;5108425;28;20213;-66
2022/06/14 01:43:51;;;;;;;1.08;1.08;;;15.10;99.90;;;;;;5107310;28;20289;-65
2022/06/14 01:46:23;;;;;;;1.27;1.17;;;15.10;99.90;;;;;;5097108;28;20631;-66
2022/06/14 01:51:50;;;;;;;1.00;1.00;;;15.20;99.90;;;;;;5106512;28;20229;-66
2022/06/14 01:52:03;;;;;;;1.30;1.20;;;14.90;99.90;;;;;;5104546;28;20520;-66
2022/06/14 01:54:41;;;;;;;1.30;1.20;;;14.80;99.90;;;;;;5108886;28;20544;-66
2022/06/14 01:57:14;;;;;;;1.02;1.02;;;14.70;99.90;;;;;;5100721;28;20217;-66
2022/06/14 01:59:52;;;;;;;1.20;1.10;;;14.80;99.90;;;;;;5110577;28;20321;-66
2022/06/14 02:02:27;;;;;;;1.00;1.00;;;14.80;99.90;;;;;;5116923;28;20664;-67
2022/06/14 02:05:04;;;;;;;1.10;1.10;;;14.70;99.90;;;;;;5112447;28;20204;-66
2022/06/14 02:07:38;;;;;;;1.00;1.00;;;14.80;99.90;;;;;;5108483;28;20281;-66
2022/06/14 02:10:14;;;;;;;1.10;1.10;;;14.80;99.90;;;;;;5090454;28;20293;-66
2022/06/14 02:12:56;;;;;;;2.10;1.35;;;14.80;99.90;;;;;;5105027;28;20667;-66
2022/06/14 02:15:28;;;;;;;1.00;1.00;;;14.80;99.90;;;;;;5106530;28;20230;-65
2022/06/14 02:18:01;;;;;;;1.00;1.00;;;14.80;99.90;;;;;;5106272;28;20238;-66
2022/06/14 02:20:33;;;;;;;1.40;1.30;;;14.80;99.90;;;;;;5107656;28;20198;-65
2022/06/14 02:23:04;;;;;;;1.23;1.13;;;14.70;99.90;;;;;;5104865;28;20301;-65
2022/06/14 02:25:37;;;;;;;1.45;1.35;;;14.80;99.90;;;;;;5106527;28;20204;-64
2022/06/14 02:28:09;;;;;;;1.20;1.20;;;14.70;99.90;;;;;;5096460;28;20225;-65
2022/06/14 02:30:41;;;;;;;1.02;1.00;;;14.60;99.90;;;;;;5106274;28;20566;-65
2022/06/14 02:33:21;;;;;;;1.00;1.00;;;14.70;99.90;;;;;;5105875;28;20285;-65
2022/06/14 02:35:54;;;;;;;1.27;1.17;;;14.70;99.90;;;;;;5103732;28;20240;-66
2022/06/14 02:38:25;;;;;;;1.38;1.27;;;14.70;99.90;;;;;;5102327;28;20275;-66
2022/06/14 02:40:57;;;;;;;1.50;1.40;;;14.70;99.90;;;;;;5109293;28;20292;-65
2022/06/14 02:43:32;;;;;;;1.50;1.40;;;14.80;99.90;;;;;;5102309;28;20198;-65
2022/06/14 02:46:02;;;;;;;1.15;1.15;;;14.70;99.90;;;;;;5111259;28;20205;-65
2022/06/14 02:48:35;;;;;;;1.05;1.05;;;14.70;99.90;;;;;;5105074;28;20221;-66
2022/06/14 02:51:08;;;;;;;1.10;1.10;;;14.70;99.90;;;;;;5094332;28;20286;-66
2022/06/14 02:53:38;;;;;;;1.20;1.20;;;14.70;99.90;;;;;;5102418;28;20234;-66
2022/06/14 02:56:14;;;;;;;1.40;1.30;;;14.50;99.90;;;;;;5112485;28;20601;-65
2022/06/14 02:58:46;;;;;;;1.20;1.20;;;14.60;99.90;;;;;;5105897;28;20675;-65
2022/06/14 03:01:18;;;;;;;1.10;1.10;;;14.60;99.90;;;;;;5106509;28;20222;-66
2022/06/14 03:03:50;;;;;;;1.37;1.27;;;14.60;99.90;;;;;;5105524;28;20275;-65
2022/06/14 03:06:26;;;;;;;1.13;1.10;;;14.60;99.90;;;;;;5105738;28;20194;-65
2022/06/14 03:08:57;;;;;;;1.10;1.10;;;14.60;99.90;;;;;;5104346;28;20236;-66
2022/06/14 03:11:43;;;;;;;1.13;1.13;;;14.60;99.90;;;;;;5107915;28;20289;-68
2022/06/14 03:14:22;;;;;;;1.52;1.42;;;14.60;99.90;;;;;;5098750;28;20205;-66
2022/06/14 03:16:56;;;;;;;1.23;1.23;;;14.70;99.90;;;;;;5109583;28;20293;-67
2022/06/14 03:19:29;;;;;;;1.23;1.23;;;14.70;99.90;;;;;;5096528;28;20312;-67
2022/06/14 03:22:02;;;;;;;1.30;1.20;;;14.60;99.90;;;;;;5105409;28;20210;-65
2022/06/14 03:24:36;;;;;;;1.38;1.27;;;14.70;99.90;;;;;;5100620;28;20721;-67
2022/06/14 03:27:13;;;;;;;1.30;1.25;;;14.60;99.90;;;;;;5092926;28;20204;-67
2022/06/14 03:29:46;;;;;;;1.33;1.27;;;14.60;99.90;;;;;;5104977;28;20254;-66
2022/06/14 03:32:17;;;;;;;1.43;1.33;;;14.60;99.90;;;;;;5090966;28;20255;-67
2022/06/14 03:34:49;;;;;;;1.38;1.27;;;14.60;99.90;;;;;;5105732;28;20211;-67
2022/06/14 03:37:16;;;;;;;1.10;1.10;;;14.60;99.90;;;;;;5094038;28;20699;-67
2022/06/14 03:39:45;;;;;;;1.50;1.40;;;14.60;99.90;;;;;;5102296;28;20309;-67
2022/06/14 03:42:15;;;;;;;1.48;1.38;;;14.50;99.90;;;;;;5097360;28;20203;-67
2022/06/14 03:44:42;;;;;;;1.20;1.20;;;14.50;99.90;;;;;;5100810;28;20296;-68
2022/06/14 03:47:21;;;;;;;1.08;1.08;;;14.50;99.90;;;;;;5100721;28;20285;-67
2022/06/14 03:49:52;;;;;;;1.40;1.30;;;14.60;99.90;;;;;;5104329;28;20658;-68
2022/06/14 03:52:36;;;;;;;1.20;1.20;;;14.60;99.90;;;;;;5101845;28;20202;-65
2022/06/14 03:55:12;;;;;;;1.50;1.40;;;14.60;99.90;;;;;;5096501;28;20291;-68
2022/06/14 03:57:58;;;;;;;1.63;1.52;;;14.60;99.90;;;;;;5084877;28;20202;-68
2022/06/14 04:00:32;;;;;;;1.25;1.15;;;14.50;99.90;;;;;;5094548;28;20214;-68
2022/06/14 04:03:20;;;;;;;1.80;1.70;;;14.50;99.90;;;;;;5105576;28;20250;-66
2022/06/14 04:06:02;;;;;;;1.50;1.40;;;14.60;99.90;;;;;;5091339;28;20282;-66
2022/06/14 04:08:37;;;;;;;1.50;1.40;;;14.50;99.90;;;;;;5106197;28;20609;-66
2022/06/14 04:11:17;;;;;;;1.85;1.40;;;14.50;99.90;;;;;;5102903;28;20194;-67
2022/06/14 04:13:52;;;;;;;1.42;1.33;;;14.50;99.90;;;;;;5103527;28;20308;-67
2022/06/14 04:16:26;;;;;;;1.57;1.47;;;14.50;99.90;;;;;;5093751;28;20216;-67
2022/06/14 04:18:59;;;;;;;1.50;1.40;;;14.50;99.90;;;;;;5113227;28;20230;-67
2022/06/14 04:21:34;;;;;;;1.53;1.43;;;14.50;99.90;;;;;;5090807;28;20260;-66
2022/06/14 04:24:09;;;;;;;1.40;1.30;;;14.40;99.90;;;;;;5106965;28;20225;-66
2022/06/14 04:26:44;;;;;;;1.60;1.50;;;14.50;99.90;;;;;;5095606;28;20978;-66
2022/06/14 04:29:17;;;;;;;1.40;1.30;;;14.50;99.90;;;;;;5094427;28;20300;-67
2022/06/14 04:31:49;;;;;;;1.40;1.30;;;14.50;99.90;;;;;;5098871;28;20612;-66
2022/06/14 04:34:22;;;;;;;1.70;1.27;;;14.50;99.90;;;;;;5105647;28;20297;-67
2022/06/14 04:36:56;;;;;;;1.50;1.40;;;14.50;99.90;;;;;;5099186;28;20202;-65
2022/06/14 04:39:26;;;;;;;1.10;1.10;;;14.50;99.90;;;;;;5090149;28;20306;-64
2022/06/14 04:41:58;;;;;;;1.48;1.38;;;14.50;99.90;;;;;;5105702;28;20540;-64
2022/06/14 04:44:33;;;;;;;1.70;1.60;;;14.60;99.90;;;;;;5096925;28;20204;-65
2022/06/14 04:47:05;;;;;;;1.50;1.40;;;14.60;99.90;;;;;;5103135;28;20280;-64
2022/06/14 04:49:37;;;;;;;1.60;1.50;;;14.70;99.90;;;;;;5098874;28;20225;-66
2022/06/14 04:52:10;;;;;;;1.30;1.30;;;14.80;99.90;;;;;;5090691;28;20284;-64
2022/06/14 04:54:43;;;;;;;1.40;1.38;;;14.80;99.90;;;;;;5106159;28;20206;-67
2022/06/14 04:57:15;;;;;;;1.50;1.40;;;14.80;99.90;;;;;;5102433;28;20216;-65
2022/06/14 04:59:48;;;;;;;2.10;1.50;;;14.90;99.90;;;;;;5107988;28;20309;-65
2022/06/14 05:02:22;;;;;;;1.50;1.40;;;15.00;99.90;;;;;;5097259;28;20690;-65
2022/06/14 05:04:53;;;;;;;1.65;1.55;;;15.10;99.90;;;;;;5104668;28;20288;-68
2022/06/14 05:07:23;;;;;;;1.50;1.40;;;15.30;99.90;;;;;;5099864;28;20719;-69
2022/06/14 05:09:56;;;;;;;1.60;1.50;;;15.50;99.90;;;;;;5100445;28;20889;-68
2022/06/14 05:12:29;;;;;;;1.40;1.30;;;15.70;99.90;;;;;;5109440;28;20198;-67
2022/06/14 05:15:03;;;;;;;1.50;1.40;;;15.90;99.90;;;;;;5106591;28;20587;-68
2022/06/14 05:17:35;;;;;;;1.53;1.43;;;16.00;99.90;;;;;;5108673;28;20310;-67
2022/06/14 05:20:10;;;;;;;1.50;1.40;;;16.10;99.90;;;;;;5107341;28;20224;-68
2022/06/14 05:22:42;;;;;;;1.37;1.27;;;16.20;99.90;;;;;;5106081;28;20216;-67
2022/06/14 05:25:12;;;;;;;1.92;1.60;;;16.40;99.90;;;;;;5097158;28;20213;-67
2022/06/14 05:27:52;;;;;;;1.93;1.37;;;16.50;99.90;;;;;;5109969;28;20233;-65
2022/06/14 05:30:31;;;;;;;1.50;1.40;;;16.60;99.90;;;;;;5115162;28;20257;-66
2022/06/14 05:33:09;;;;;;;1.50;1.40;;;16.70;99.90;;;;;;5114747;28;20226;-67
2022/06/14 05:35:40;;;;;;;1.65;1.55;;;16.90;99.90;;;;;;5115291;28;20198;-67
2022/06/14 05:38:19;;;;;;;1.47;1.37;;;17.10;99.90;;;;;;5110982;28;20297;-66
2022/06/14 05:40:52;;;;;;;1.63;1.53;;;17.20;99.90;;;;;;5113510;28;20240;-67
2022/06/14 05:43:28;;;;;;;1.37;1.37;;;17.40;99.90;;;;;;5104901;28;20264;-66
2022/06/14 05:46:02;;;;;;;1.30;1.30;;;17.60;99.90;;;;;;5101352;28;20244;-68
2022/06/14 05:48:33;;;;;;;1.43;1.33;;;17.70;99.90;;;;;;5099532;28;20224;-67
2022/06/14 05:51:01;;;;;;;1.73;1.63;;;17.90;99.90;;;;;;5106884;28;20293;-64
2022/06/14 05:53:36;;;;;;;1.55;1.45;;;18.00;99.90;;;;;;5094944;28;20690;-67
2022/06/14 05:56:13;;;;;;;1.47;1.37;;;18.20;99.90;;;;;;5094409;28;20285;-68
2022/06/14 05:58:46;;;;;;;1.98;1.70;;;18.30;99.90;;;;;;5096975;28;20230;-65
2022/06/14 06:01:19;;;;;;;1.27;1.27;;;18.30;99.90;;;;;;5109768;28;20251;-65
2022/06/14 06:03:50;;;;;;;1.45;1.35;;;18.40;99.90;;;;;;5105506;28;20238;-66
2022/06/14 06:06:22;;;;;;;1.20;1.20;;;18.50;99.90;;;;;;5100445;28;20202;-65
2022/06/14 06:08:52;;;;;;;1.50;1.40;;;18.60;99.90;;;;;;5104115;28;20232;-66
2022/06/14 06:11:23;;;;;;;1.40;1.30;;;18.50;99.90;;;;;;5107646;28;20529;-66
2022/06/14 06:13:58;;;;;;;1.75;1.50;;;18.60;99.90;;;;;;5105867;28;21723;-66
2022/06/14 06:16:34;;;;;;;1.85;1.55;;;18.60;99.90;;;;;;5103195;28;20214;-66
2022/06/14 06:19:05;;;;;;;1.67;1.58;;;18.70;99.90;;;;;;5101499;28;20226;-65
2022/06/14 06:21:40;;;;;;;1.50;1.40;;;18.70;99.90;;;;;;5104205;28;20304;-66
2022/06/14 06:24:11;;;;;;;1.15;1.15;;;18.90;99.90;;;;;;5093668;28;20263;-66
2022/06/14 06:26:42;;;;;;;1.70;1.60;;;18.90;99.90;;;;;;5096892;28;20207;-66
2022/06/14 06:29:15;;;;;;;1.60;1.50;;;18.90;99.90;;;;;;5097760;28;20302;-66
2022/06/14 06:31:45;;;;;;;2.38;1.50;;;18.90;99.90;;;;;;5102204;28;20233;-66
2022/06/14 06:34:15;;;;;;;1.55;1.45;;;19.00;99.90;;;;;;5098333;28;20202;-67
2022/06/14 06:36:54;;;;;;;1.50;1.40;;;18.90;99.90;;;;;;5100160;28;20289;-66
2022/06/14 06:39:44;;;;;;;1.77;1.50;;;18.90;99.90;;;;;;5099881;28;20222;-65
2022/06/14 06:42:16;;;;;;;1.60;1.50;;;18.90;99.90;;;;;;5098882;28;20202;-67
2022/06/14 06:44:51;;;;;;;1.55;1.45;;;19.00;99.90;;;;;;5092477;28;20559;-67
2022/06/14 06:47:25;;;;;;;2.20;1.73;;;19.10;99.90;;;;;;5105423;28;20626;-66
2022/06/14 06:50:04;;;;;;;1.48;1.38;;;19.20;99.90;;;;;;5107407;28;20250;-66
2022/06/14 06:52:41;;;;;;;1.50;1.40;;;19.20;99.90;;;;;;5105222;28;20259;-66
2022/06/14 06:55:13;;;;;;;1.50;1.40;;;19.30;99.90;;;;;;5098618;28;20294;-65
2022/06/14 06:57:43;;;;;;;1.50;1.40;;;19.40;99.90;;;;;;5106657;28;20251;-65
2022/06/14 07:00:13;;;;;;;1.52;1.42;;;19.60;99.90;;;;;;5100656;28;20592;-66
2022/06/14 07:02:45;;;;;;;1.40;1.30;;;19.70;99.90;;;;;;5092383;28;20278;-65
2022/06/14 07:05:15;;;;;;;1.60;1.50;;;19.80;99.90;;;;;;5093312;28;20206;-65
2022/06/14 07:07:49;;;;;;;1.53;1.40;;;20.00;99.90;;;;;;5105089;28;20470;-65
2022/06/14 07:10:27;;;;;;;1.38;1.27;;;20.10;99.90;;;;;;5105843;28;20761;-67
2022/06/14 07:12:57;;;;;;;1.53;1.43;;;20.10;99.90;;;;;;5103036;28;20708;-66
2022/06/14 07:15:30;;;;;;;1.30;1.30;;;20.20;99.90;;;;;;5108911;28;20202;-67
2022/06/14 07:18:06;;;;;;;1.27;1.27;;;20.40;99.90;;;;;;5107829;28;20261;-67
2022/06/14 07:20:39;;;;;;;1.60;1.50;;;20.50;99.90;;;;;;5099958;28;20213;-67
2022/06/14 07:23:17;;;;;;;1.42;1.33;;;20.40;99.90;;;;;;5100368;28;20285;-66
2022/06/14 07:25:54;;;;;;;1.60;1.50;;;20.30;99.90;;;;;;5114995;28;20199;-66
2022/06/14 07:28:25;;;;;;;1.25;1.17;;;20.40;99.90;;;;;;5110949;28;20229;-65
2022/06/14 07:30:56;;;;;;;1.50;1.40;;;20.60;99.90;;;;;;5110699;28;20253;-68
2022/06/14 07:33:27;;;;;;;1.42;1.38;;;20.70;99.90;;;;;;5111657;28;20637;-66
2022/06/14 07:35:57;;;;;;;1.65;1.55;;;20.70;99.90;;;;;;5108755;28;20257;-68
2022/06/14 07:38:32;;;;;;;1.70;1.60;;;20.80;99.90;;;;;;5109752;28;20321;-66
2022/06/14 07:41:04;;;;;;;1.40;1.30;;;20.80;99.90;;;;;;5111477;28;20206;-65
2022/06/14 07:43:40;;;;;;;1.60;1.50;;;21.00;99.90;;;;;;5105414;28;20742;-67
2022/06/14 07:46:12;;;;;;;1.50;1.40;;;21.10;99.90;;;;;;5108970;28;20297;-67
2022/06/14 07:48:46;;;;;;;1.50;1.40;;;21.00;99.90;;;;;;5108671;28;20301;-67
2022/06/14 07:51:21;;;;;;;1.75;1.65;;;21.20;99.90;;;;;;5107929;28;20221;-66
2022/06/14 07:53:58;;;;;;;1.67;1.58;;;21.20;99.90;;;;;;5111825;28;20202;-65
2022/06/14 07:56:30;;;;;;;1.30;1.30;;;21.20;99.90;;;;;;5112282;28;20195;-68
2022/06/14 07:59:03;;;;;;;1.63;1.52;;;21.30;99.90;;;;;;5105422;28;21649;-66
2022/06/14 08:01:34;;;;;;;1.60;1.50;;;21.50;99.90;;;;;;5099466;28;20201;-65
2022/06/14 08:04:07;;;;;;;1.50;1.40;;;21.70;99.90;;;;;;5098545;28;20201;-67
2022/06/14 08:06:38;;;;;;;1.70;1.60;;;21.80;99.90;;;;;;5089960;28;20282;-65
2022/06/14 08:09:10;;;;;;;1.70;1.60;;;21.80;99.90;;;;;;5096737;28;20222;-67
2022/06/14 08:11:42;;;;;;;2.03;1.92;;;21.90;99.90;;;;;;5086726;28;20314;-67
2022/06/14 08:14:14;;;;;;;1.50;1.40;;;21.90;99.90;;;;;;5092570;28;20234;-67
2022/06/14 08:16:42;;;;;;;1.42;1.33;;;22.00;99.90;;;;;;5090372;28;20211;-65
2022/06/14 08:19:16;;;;;;;1.40;1.30;;;22.10;99.90;;;;;;5107559;28;20237;-66
2022/06/14 08:21:47;;;;;;;1.45;1.35;;;22.20;99.90;;;;;;5099772;28;20228;-65
2022/06/14 08:24:17;;;;;;;1.50;1.40;;;22.30;99.90;;;;;;5096571;28;20198;-65
2022/06/14 08:26:49;;;;;;;1.42;1.33;;;22.50;99.90;;;;;;5098470;28;20286;-65
2022/06/14 08:29:21;;;;;;;1.30;1.20;;;22.70;99.90;;;;;;5105913;28;20239;-65
2022/06/14 08:31:53;;;;;;;1.40;1.30;;;22.70;99.90;;;;;;5109181;28;21667;-65
2022/06/14 08:34:25;;;;;;;1.63;1.45;;;22.70;99.90;;;;;;5106133;28;20285;-66
2022/06/14 08:36:59;;;;;;;2.25;1.40;;;22.70;99.90;;;;;;5106991;28;20277;-66
2022/06/14 08:39:31;;;;;;;1.77;1.40;;;22.80;99.90;;;;;;5088003;28;21028;-67
2022/06/14 08:42:06;;;;;;;1.48;1.38;;;22.80;99.90;;;;;;5098418;28;20395;-66
2022/06/14 08:44:39;;;;;;;1.60;1.50;;;23.00;99.90;;;;;;5101824;28;20205;-67
2022/06/14 08:47:39;;;;;;;2.17;1.50;;;22.90;99.90;;;;;;5102999;28;20197;-66
2022/06/14 08:50:37;;;;;;;1.47;1.37;;;23.00;99.90;;;;;;5095007;28;20194;-67
2022/06/14 08:53:43;;;;;;;1.20;1.20;;;23.20;99.90;;;;;;5083681;28;20234;-67
2022/06/14 08:56:43;;;;;;;1.25;1.25;;;23.30;99.90;;;;;;5091286;28;20211;-66
2022/06/14 08:59:40;;;;;;;1.30;1.20;;;23.50;99.90;;;;;;5101827;28;20688;-67
2022/06/14 09:02:34;;;;;;;2.03;1.45;;;23.70;99.90;;;;;;5100468;28;20282;-68
2022/06/14 09:05:33;;;;;;;1.50;1.40;;;23.70;99.90;;;;;;5096684;28;20247;-66
2022/06/14 09:08:27;;;;;;;1.40;1.30;;;23.60;99.90;;;;;;5107268;28;20246;-67
2022/06/14 09:11:20;;;;;;;1.70;1.48;;;23.70;99.90;;;;;;5118311;28;20210;-67
2022/06/14 09:14:15;;;;;;;2.67;1.30;;;23.70;99.90;;;;;;5120068;28;20300;-65
2022/06/14 09:17:18;;;;;;;3.05;1.40;;;23.90;99.90;;;;;;5078989;28;20229;-67
2022/06/14 09:20:00;;;;;;;1.20;1.20;;;23.90;99.90;;;;;;5103904;28;20230;-67
2022/06/14 09:22:39;;;;;;;1.90;1.40;;;23.90;99.90;;;;;;5103637;28;20202;-66
2022/06/14 09:25:21;;;;;;;1.58;1.48;;;23.90;99.90;;;;;;5105015;28;20209;-67
2022/06/14 09:28:07;;;;;;;1.20;1.20;;;24.00;99.90;;;;;;5105126;28;20202;-67
2022/06/14 09:31:04;;;;;;;1.40;1.30;;;24.10;99.90;;;;;;5100325;28;20252;-67
2022/06/14 09:34:05;;;;;;;1.70;1.60;;;24.10;99.90;;;;;;5079351;28;20206;-67
2022/06/14 09:37:17;;;;;;;1.45;1.40;;;24.20;99.90;;;;;;5100016;28;20210;-65
2022/06/14 09:40:17;;;;;;;1.20;1.20;;;24.40;99.90;;;;;;5105573;28;20318;-67
2022/06/14 09:43:23;;;;;;;1.35;1.30;;;24.60;99.90;;;;;;5105744;28;20517;-66
2022/06/14 09:46:13;;;;;;;1.73;1.63;;;24.50;99.90;;;;;;5109975;28;20747;-64
2022/06/14 09:49:06;;;;;;;1.40;1.30;;;24.50;99.90;;;;;;5112880;28;20220;-67
2022/06/14 09:51:59;;;;;;;1.45;1.35;;;24.60;99.90;;;;;;5107072;28;20242;-67
2022/06/14 09:54:57;;;;;;;1.15;1.15;;;24.60;99.90;;;;;;5107908;28;20213;-65
2022/06/14 09:57:51;;;;;;;1.23;1.23;;;24.80;99.90;;;;;;5106967;28;20289;-67
2022/06/14 10:00:25;;;;;;;1.33;1.25;;;24.80;99.90;;;;;;5106118;28;20242;-67
2022/06/14 10:03:37;;;;;;;1.58;1.48;;;24.70;99.90;;;;;;5108974;28;20206;-66
2022/06/14 10:06:30;;;;;;;1.75;1.40;;;24.70;99.90;;;;;;5095383;28;20280;-66
2022/06/14 10:09:11;;;;;;;1.40;1.30;;;25.00;99.90;;;;;;5110947;28;20275;-67
2022/06/14 10:11:51;;;;;;;1.80;1.25;;;25.00;99.90;;;;;;5114931;28;20225;-67
2022/06/14 10:14:33;;;;;;;1.20;1.20;;;25.10;99.90;;;;;;5101792;28;20237;-66
2022/06/14 10:17:27;;;;;;;1.58;1.33;;;25.20;99.90;;;;;;5112648;28;20277;-66
2022/06/14 10:20:31;;;;;;;1.48;1.38;;;25.20;99.90;;;;;;5065358;28;20230;-66
2022/06/14 10:23:11;;;;;;;1.38;1.25;;;25.20;99.90;;;;;;5104256;28;20207;-67
2022/06/14 10:28:11;;;;;;;1.40;1.30;;;25.50;99.90;;;;;;5106144;28;20214;-67
2022/06/14 10:28:49;;;;;;;1.77;1.30;;;25.80;99.90;;;;;;5102823;28;20245;-67
2022/06/14 10:31:28;;;;;;;1.33;1.23;;;26.00;99.90;;;;;;5100052;28;20198;-68
2022/06/14 10:34:00;;;;;;;1.10;1.10;;;26.10;99.90;;;;;;5112030;28;20237;-66
2022/06/14 10:36:52;;;;;;;1.25;1.20;;;25.80;99.90;;;;;;5102389;28;20602;-66
2022/06/14 10:39:49;;;;;;;1.23;1.13;;;25.70;99.90;;;;;;5091632;28;20314;-67
2022/06/14 10:42:24;;;;;;;1.30;1.20;;;25.80;99.90;;;;;;5089759;28;20198;-68
2022/06/14 10:44:59;;;;;;;1.40;1.30;;;25.90;99.90;;;;;;5105067;28;20214;-65
2022/06/14 10:48:07;;;;;;;1.00;1.00;;;25.90;99.90;;;;;;5106117;28;20956;-66
2022/06/14 10:50:48;;;;;;;1.40;1.30;;;25.90;99.90;;;;;;5105184;28;20648;-66
2022/06/14 10:53:23;;;;;;;1.48;1.25;;;26.10;99.90;;;;;;5098601;28;20202;-65
2022/06/14 10:56:27;;;;;;;1.20;1.10;;;26.20;99.90;;;;;;5089691;28;20211;-67
2022/06/14 10:59:23;;;;;;;1.23;1.23;;;26.10;99.90;;;;;;5102628;28;20253;-66
2022/06/14 11:01:58;;;;;;;1.40;1.30;;;26.00;99.90;;;;;;5102850;28;20258;-67
2022/06/14 11:04:34;;;;;;;1.40;1.30;;;26.00;99.90;;;;;;5103652;28;20198;-65
2022/06/14 11:07:36;;;;;;;1.23;1.13;;;25.90;99.90;;;;;;5104602;28;20225;-66
2022/06/14 11:10:25;;;;;;;1.23;1.13;;;25.90;99.90;;;;;;5099191;28;20312;-66
2022/06/14 11:13:05;;;;;;;1.02;1.02;;;26.00;99.90;;;;;;5104808;28;20297;-66
2022/06/14 11:15:39;;;;;;;1.38;1.27;;;26.40;99.90;;;;;;5101500;28;20246;-66
2022/06/14 11:18:39;;;;;;;1.52;1.42;;;26.50;99.90;;;;;;5094438;28;20222;-68
2022/06/14 11:21:20;;;;;;;1.42;1.33;;;26.50;99.90;;;;;;5114638;28;20249;-66
2022/06/14 11:23:55;;;;;;;1.60;1.50;;;26.40;99.90;;;;;;5113012;28;20234;-66
2022/06/14 11:26:29;;;;;;;1.30;1.20;;;26.50;99.90;;;;;;5111519;28;20225;-68
2022/06/14 11:29:04;;;;;;;1.50;1.40;;;26.60;99.90;;;;;;5114746;28;20348;-66
2022/06/14 11:31:38;;;;;;;1.38;1.27;;;26.50;99.90;;;;;;5103151;28;20206;-64
2022/06/14 11:34:32;;;;;;;1.20;1.17;;;26.40;99.90;;;;;;5106661;28;20202;-65
2022/06/14 11:37:26;;;;;;;1.30;1.20;;;26.40;99.90;;;;;;5097453;28;20243;-67
2022/06/14 11:39:59;;;;;;;1.30;1.20;;;26.20;99.90;;;;;;5103277;28;20225;-65
2022/06/14 11:42:29;;;;;;;1.40;1.30;;;26.40;99.90;;;;;;5103600;28;20644;-67
2022/06/14 11:45:16;;;;;;;0.98;0.98;;;26.50;99.90;;;;;;5100539;28;20331;-67
2022/06/14 11:47:50;;;;;;;1.67;1.48;;;26.80;99.90;;;;;;5106194;28;20212;-66
2022/06/14 11:50:30;;;;;;;1.70;1.60;;;27.00;99.90;;;;;;5102856;28;20651;-65
2022/06/14 11:53:29;;;;;;;1.83;1.33;;;26.90;99.90;;;;;;5108816;28;20572;-67
2022/06/14 11:56:03;;;;;;;1.45;1.35;;;26.80;99.90;;;;;;5102445;28;20194;-67
2022/06/14 11:58:39;;;;;;;2.28;1.17;;;26.80;99.90;;;;;;5113464;28;20222;-67
2022/06/14 12:01:16;;;;;;;1.58;1.30;;;26.80;99.90;;;;;;5105289;28;20796;-67
2022/06/14 12:04:25;;;;;;;1.50;1.40;;;26.80;99.90;;;;;;5111121;28;20201;-66
2022/06/14 12:06:57;;;;;;;1.00;1.00;;;26.80;99.90;;;;;;5092156;28;21039;-68
2022/06/14 12:09:47;;;;;;;1.30;1.25;;;26.80;99.90;;;;;;5098058;28;20232;-67
2022/06/14 12:12:23;;;;;;;1.50;1.40;;;26.80;99.90;;;;;;5100592;28;20198;-68
2022/06/14 12:14:59;;;;;;;1.17;1.13;;;26.80;99.90;;;;;;5098943;28;20668;-67
2022/06/14 12:17:29;;;;;;;1.30;1.20;;;27.00;99.90;;;;;;5104990;28;20205;-65
2022/06/14 12:20:07;;;;;;;1.50;1.20;;;27.20;99.90;;;;;;5102440;28;20227;-67
2022/06/14 12:22:42;;;;;;;1.50;1.40;;;27.30;99.90;;;;;;5093343;28;20227;-67
2022/06/14 12:28:17;;;;;;;1.65;1.55;;;27.40;99.90;;;;;;5049346;28;20222;-66
2022/06/14 12:30:45;;;;;;;1.38;1.23;;;27.40;99.90;;;;;;5106549;28;20198;-66
2022/06/14 12:33:18;;;;;;;1.40;1.30;;;27.40;99.90;;;;;;5102929;28;20202;-65
2022/06/14 12:35:54;;;;;;;1.92;1.40;;;27.20;99.90;;;;;;5110558;28;20208;-65
2022/06/14 12:38:26;;;;;;;1.42;1.33;;;27.30;99.90;;;;;;5105725;28;20487;-66
2022/06/14 12:41:05;;;;;;;1.20;1.20;;;27.30;99.90;;;;;;5106587;28;20560;-66
2022/06/14 12:43:42;;;;;;;1.00;1.00;;;27.40;99.90;;;;;;5103672;28;20204;-65
2022/06/14 12:46:11;;;;;;;1.67;1.58;;;27.50;99.90;;;;;;5102379;28;20324;-66
2022/06/14 12:48:42;;;;;;;2.47;1.50;;;27.50;99.90;;;;;;5103962;28;20348;-67
2022/06/14 12:51:14;;;;;;;1.40;1.30;;;27.50;99.90;;;;;;5110942;28;20205;-66
2022/06/14 12:53:48;;;;;;;1.40;1.30;;;27.60;99.90;;;;;;5102594;28;20256;-66
2022/06/14 12:56:20;;;;;;;1.85;1.40;;;27.80;99.90;;;;;;5108052;28;20281;-65
2022/06/14 12:59:07;;;;;;;1.10;1.10;;;28.00;99.90;;;;;;5104816;28;20313;-67
2022/06/14 13:01:41;;;;;;;1.33;1.27;;;28.10;99.90;;;;;;5099921;28;20205;-66
2022/06/14 13:04:15;;;;;;;1.80;1.30;;;28.10;99.90;;;;;;5092862;28;20648;-66
2022/06/14 13:06:56;;;;;;;1.27;1.27;;;28.30;99.90;;;;;;5105807;28;20229;-67
2022/06/14 13:09:31;;;;;;;1.40;1.30;;;28.40;99.90;;;;;;5099543;28;20322;-69
2022/06/14 13:12:12;;;;;;;1.20;1.20;;;28.30;99.90;;;;;;5104575;28;20807;-67
2022/06/14 13:14:48;;;;;;;1.33;1.23;;;28.40;99.90;;;;;;5111930;28;20201;-66
2022/06/14 13:17:33;;;;;;;1.38;1.25;;;28.60;99.90;;;;;;5111307;28;20730;-67
2022/06/14 13:20:10;;;;;;;1.17;1.17;;;28.50;99.90;;;;;;5117389;28;20229;-67
2022/06/14 13:22:54;;;;;;;1.02;1.02;;;28.50;99.90;;;;;;5109694;28;20194;-66
2022/06/14 13:25:33;;;;;;;1.40;1.30;;;28.60;99.90;;;;;;5102661;28;20209;-67
2022/06/14 13:28:13;;;;;;;1.55;1.45;;;28.50;99.90;;;;;;5105989;28;20218;-66
2022/06/14 13:30:47;;;;;;;2.15;1.10;;;28.60;99.90;;;;;;5103181;28;20280;-65
2022/06/14 13:33:30;;;;;;;1.40;1.30;;;28.50;99.90;;;;;;5098788;28;20293;-65
2022/06/14 13:36:04;;;;;;;1.30;1.30;;;28.50;99.90;;;;;;5103945;28;20695;-67
2022/06/14 13:38:37;;;;;;;1.70;1.60;;;28.50;99.90;;;;;;5102594;28;20324;-66
2022/06/14 13:41:11;;;;;;;1.73;1.63;;;28.60;99.90;;;;;;5107556;28;20621;-64
2022/06/14 13:43:50;;;;;;;1.10;1.10;;;28.70;99.90;;;;;;5101570;28;20662;-66